Time;durP1;ratioP1;P1;durP2;ratioP2;P2;SDS_P1;SDS_P2;PMS_P1;PMS_P2;Temp;Humidity;BMP_temperature;BMP_pressure;BME280_temperature;BME280_humidity;BME280_pressure;Samples;Min_cycle;Max_cycle;Signal;HPM_P1;HPM_P2
2023/10/24 00:00:30;;;;;;;0.00;0.00;;;15.20;74.20;;;;;;4989892;28;20211;-31
2023/10/24 00:02:59;;;;;;;0.00;0.00;;;15.20;74.20;;;;;;4998104;28;20249;-31
2023/10/24 00:05:29;;;;;;;0.00;0.00;;;15.20;74.30;;;;;;5022751;28;20330;-31
2023/10/24 00:07:59;;;;;;;0.00;0.00;;;15.20;74.20;;;;;;5007902;28;20296;-31
2023/10/24 00:10:30;;;;;;;0.00;0.00;;;15.20;74.20;;;;;;5022747;28;20219;-31
2023/10/24 00:12:57;;;;;;;0.00;0.00;;;15.20;74.20;;;;;;5025836;28;20292;-32
2023/10/24 00:15:27;;;;;;;0.00;0.00;;;15.20;74.10;;;;;;5021027;28;20210;-32
2023/10/24 00:17:59;;;;;;;0.00;0.00;;;15.10;74.10;;;;;;5027474;28;20216;-32
2023/10/24 00:20:29;;;;;;;0.00;0.00;;;15.10;74.10;;;;;;5025797;28;20201;-32
2023/10/24 00:22:58;;;;;;;0.00;0.00;;;15.10;74.10;;;;;;5022840;28;20661;-32
2023/10/24 00:25:25;;;;;;;0.00;0.00;;;15.10;74.10;;;;;;4978490;28;20248;-32
2023/10/24 00:27:53;;;;;;;0.00;0.00;;;15.10;74.00;;;;;;5021177;28;20252;-32
2023/10/24 00:30:22;;;;;;;0.00;0.00;;;15.10;74.10;;;;;;5010083;28;20216;-32
2023/10/24 00:32:50;;;;;;;0.00;0.00;;;15.10;74.00;;;;;;5019992;28;20240;-32
2023/10/24 00:35:18;;;;;;;0.00;0.00;;;15.10;74.00;;;;;;5007462;28;20740;-32
2023/10/24 00:37:45;;;;;;;0.00;0.00;;;15.00;73.90;;;;;;5007184;28;20267;-31
2023/10/24 00:40:12;;;;;;;0.00;0.00;;;15.00;73.90;;;;;;5023811;28;20201;-32
2023/10/24 00:42:40;;;;;;;0.00;0.00;;;15.00;73.90;;;;;;5010330;28;20233;-32
2023/10/24 00:45:09;;;;;;;0.00;0.00;;;15.00;73.90;;;;;;5005663;28;20715;-32
2023/10/24 00:47:41;;;;;;;0.00;0.00;;;14.90;73.80;;;;;;5008854;28;20197;-31
2023/10/24 00:50:09;;;;;;;0.00;0.00;;;14.90;73.80;;;;;;5007092;28;20201;-32
2023/10/24 00:52:37;;;;;;;0.00;0.00;;;14.90;73.80;;;;;;5007258;28;20220;-32
2023/10/24 00:55:07;;;;;;;0.00;0.00;;;14.90;74.60;;;;;;5010405;28;20225;-32
2023/10/24 00:57:35;;;;;;;0.00;0.00;;;14.80;73.80;;;;;;4989337;28;20233;-32
2023/10/24 01:00:06;;;;;;;0.00;0.00;;;14.80;73.90;;;;;;5023066;28;20212;-31
2023/10/24 01:02:36;;;;;;;0.00;0.00;;;14.80;74.00;;;;;;5015832;28;20232;-32
2023/10/24 01:05:07;;;;;;;0.00;0.00;;;14.80;74.00;;;;;;5024718;28;20476;-32
2023/10/24 01:07:39;;;;;;;0.00;0.00;;;14.80;74.00;;;;;;5021869;28;20202;-32
2023/10/24 01:10:07;;;;;;;0.00;0.00;;;14.80;74.10;;;;;;5006881;28;20197;-32
2023/10/24 01:12:34;;;;;;;0.00;0.00;;;14.80;74.10;;;;;;5010750;28;20202;-32
2023/10/24 01:15:01;;;;;;;0.00;0.00;;;14.80;74.10;;;;;;5018015;28;20746;-32
2023/10/24 01:17:31;;;;;;;0.00;0.00;;;14.80;74.10;;;;;;5024638;28;20205;-31
2023/10/24 01:20:04;;;;;;;0.00;0.00;;;14.80;74.10;;;;;;5014185;28;20705;-32
2023/10/24 01:22:31;;;;;;;0.00;0.00;;;14.80;74.10;;;;;;5013849;28;20691;-32
2023/10/24 01:25:05;;;;;;;0.00;0.00;;;14.80;74.20;;;;;;5007062;28;20194;-32
2023/10/24 01:27:32;;;;;;;0.00;0.00;;;14.80;74.20;;;;;;5013215;28;20288;-32
2023/10/24 01:30:02;;;;;;;0.00;0.00;;;14.80;74.10;;;;;;5021927;28;20189;-32
2023/10/24 01:32:32;;;;;;;0.00;0.00;;;14.80;74.00;;;;;;5019327;28;20296;-32
2023/10/24 01:35:03;;;;;;;0.00;0.00;;;14.80;74.00;;;;;;5010064;28;20221;-32
2023/10/24 01:37:30;;;;;;;0.00;0.00;;;14.80;74.00;;;;;;5017931;28;20305;-32
2023/10/24 01:39:57;;;;;;;0.00;0.00;;;14.70;73.90;;;;;;5009802;28;20205;-32
2023/10/24 01:42:26;;;;;;;0.00;0.00;;;14.80;74.00;;;;;;5023164;28;20238;-32
2023/10/24 01:44:54;;;;;;;0.00;0.00;;;14.70;73.90;;;;;;5023008;28;21021;-32
2023/10/24 01:47:21;;;;;;;0.00;0.00;;;14.70;73.90;;;;;;5016118;28;20207;-32
2023/10/24 01:49:48;;;;;;;0.00;0.00;;;14.70;73.90;;;;;;5012565;28;20213;-32
2023/10/24 01:52:17;;;;;;;0.00;0.00;;;14.70;73.90;;;;;;4992833;28;20215;-32
2023/10/24 01:54:47;;;;;;;0.00;0.00;;;14.70;73.90;;;;;;5015616;28;20205;-32
2023/10/24 01:57:14;;;;;;;0.00;0.00;;;14.70;74.00;;;;;;5011611;28;20250;-31
2023/10/24 01:59:44;;;;;;;0.00;0.00;;;14.60;73.90;;;;;;5027453;28;20675;-32
2023/10/24 02:02:11;;;;;;;0.00;0.00;;;14.60;74.00;;;;;;5004634;28;20755;-32
2023/10/24 02:04:38;;;;;;;0.00;0.00;;;14.60;74.00;;;;;;5009813;28;20201;-32
2023/10/24 02:07:09;;;;;;;0.00;0.00;;;14.60;74.00;;;;;;5017198;28;20747;-32
2023/10/24 02:09:36;;;;;;;0.00;0.00;;;14.60;74.80;;;;;;5028053;28;20193;-32
2023/10/24 02:12:06;;;;;;;0.00;0.00;;;14.60;74.00;;;;;;5030371;28;20332;-32
2023/10/24 02:14:35;;;;;;;0.00;0.00;;;14.60;74.00;;;;;;5012051;28;20233;-32
2023/10/24 02:17:05;;;;;;;0.00;0.00;;;14.60;74.00;;;;;;5031288;28;20751;-32
2023/10/24 02:19:32;;;;;;;0.00;0.00;;;14.60;74.00;;;;;;5030882;28;20201;-32
2023/10/24 02:22:02;;;;;;;0.00;0.00;;;14.60;74.00;;;;;;5029698;28;20710;-32
2023/10/24 02:24:31;;;;;;;0.00;0.00;;;14.60;74.00;;;;;;5039406;28;20287;-32
2023/10/24 02:27:00;;;;;;;0.00;0.00;;;14.60;74.00;;;;;;5043924;28;20254;-32
2023/10/24 02:29:30;;;;;;;0.00;0.00;;;14.60;74.00;;;;;;5009306;28;20208;-32
2023/10/24 02:32:02;;;;;;;0.00;0.00;;;14.60;74.00;;;;;;5023739;28;20223;-32
2023/10/24 02:34:30;;;;;;;0.00;0.00;;;14.60;74.00;;;;;;5023888;28;20205;-33
2023/10/24 02:36:57;;;;;;;0.00;0.00;;;14.60;74.00;;;;;;5008093;28;20204;-32
2023/10/24 02:39:24;;;;;;;0.00;0.00;;;14.60;74.00;;;;;;5011798;28;20737;-32
2023/10/24 02:41:51;;;;;;;0.00;0.00;;;14.60;73.90;;;;;;5007526;28;20312;-32
2023/10/24 02:44:21;;;;;;;0.00;0.00;;;14.60;73.90;;;;;;5009206;28;20641;-32
2023/10/24 02:46:53;;;;;;;0.00;0.00;;;14.50;73.90;;;;;;5021916;28;20724;-32
2023/10/24 02:49:20;;;;;;;0.00;0.00;;;14.50;73.90;;;;;;5011969;28;20218;-32
2023/10/24 02:51:51;;;;;;;0.00;0.00;;;14.50;73.90;;;;;;5026871;28;20236;-32
2023/10/24 02:54:18;;;;;;;0.00;0.00;;;14.50;73.90;;;;;;5022888;28;20221;-33
2023/10/24 02:56:47;;;;;;;0.00;0.00;;;14.50;74.00;;;;;;5007771;28;20653;-32
2023/10/24 02:59:14;;;;;;;0.00;0.00;;;14.50;74.00;;;;;;5010856;28;20248;-32
2023/10/24 03:01:46;;;;;;;0.00;0.00;;;14.50;74.00;;;;;;5009123;28;20254;-32
2023/10/24 03:04:16;;;;;;;0.00;0.00;;;14.50;74.00;;;;;;5008473;28;20232;-32
2023/10/24 03:06:49;;;;;;;0.00;0.00;;;14.50;74.80;;;;;;5008917;28;20226;-32
2023/10/24 03:09:22;;;;;;;0.00;0.00;;;14.50;74.00;;;;;;5010402;28;20193;-32
2023/10/24 03:11:49;;;;;;;0.00;0.00;;;14.50;74.10;;;;;;5007030;28;20209;-32
2023/10/24 03:14:19;;;;;;;0.00;0.00;;;14.50;74.10;;;;;;5011017;28;20201;-32
2023/10/24 03:16:48;;;;;;;0.00;0.00;;;14.50;74.10;;;;;;5024223;28;20236;-32
2023/10/24 03:19:24;;;;;;;0.00;0.00;;;14.50;74.10;;;;;;5007609;28;20197;-32
2023/10/24 03:21:51;;;;;;;0.00;0.00;;;14.50;74.10;;;;;;5015008;28;20205;-32
2023/10/24 03:24:19;;;;;;;0.00;0.00;;;14.50;74.10;;;;;;4995824;28;20205;-31
2023/10/24 03:26:48;;;;;;;0.00;0.00;;;14.50;74.00;;;;;;5028494;28;20272;-32
2023/10/24 03:29:20;;;;;;;0.00;0.00;;;14.50;74.00;;;;;;5025594;28;20259;-32
2023/10/24 03:31:47;;;;;;;0.00;0.00;;;14.50;74.00;;;;;;5011852;28;20228;-32
2023/10/24 03:34:15;;;;;;;0.00;0.00;;;14.50;74.00;;;;;;5018487;28;20213;-32
2023/10/24 03:36:45;;;;;;;0.00;0.00;;;14.50;74.00;;;;;;5007862;28;20217;-32
2023/10/24 03:39:12;;;;;;;0.00;0.00;;;14.50;74.00;;;;;;5037861;28;20306;-31
2023/10/24 03:41:44;;;;;;;0.00;0.00;;;14.50;74.00;;;;;;5005394;28;20688;-32
2023/10/24 03:44:16;;;;;;;0.00;0.00;;;14.50;74.00;;;;;;5007516;28;20201;-33
2023/10/24 03:46:43;;;;;;;0.00;0.00;;;14.50;74.00;;;;;;5010862;28;20456;-32
2023/10/24 03:49:10;;;;;;;0.00;0.00;;;14.50;74.10;;;;;;5011997;28;20327;-32
2023/10/24 03:51:42;;;;;;;0.00;0.00;;;14.50;74.10;;;;;;5022626;28;20204;-31
2023/10/24 03:54:10;;;;;;;0.00;0.00;;;14.50;74.10;;;;;;5018151;28;20287;-32
2023/10/24 03:56:44;;;;;;;0.00;0.00;;;14.50;74.10;;;;;;5031253;28;20219;-32
2023/10/24 03:59:11;;;;;;;0.00;0.00;;;14.50;74.10;;;;;;5009718;28;20213;-32
2023/10/24 04:01:43;;;;;;;0.00;0.00;;;14.50;74.10;;;;;;5024450;28;20257;-32
2023/10/24 04:04:13;;;;;;;0.00;0.00;;;14.50;74.00;;;;;;5006372;28;20275;-32
2023/10/24 04:06:42;;;;;;;0.00;0.00;;;14.50;74.00;;;;;;5007505;28;20205;-32
2023/10/24 04:09:09;;;;;;;0.00;0.00;;;14.50;74.00;;;;;;5027296;28;20209;-32
2023/10/24 04:11:49;;;;;;;0.00;0.00;;;14.60;74.10;;;;;;5027531;28;20201;-32
2023/10/24 04:14:16;;;;;;;0.00;0.00;;;14.50;74.00;;;;;;5012326;28;20782;-31
2023/10/24 04:16:43;;;;;;;0.00;0.00;;;14.50;74.00;;;;;;5007930;28;20241;-32
2023/10/24 04:19:10;;;;;;;0.00;0.00;;;14.50;74.00;;;;;;5006161;28;20590;-32
2023/10/24 04:21:37;;;;;;;0.00;0.00;;;14.50;74.00;;;;;;5006104;28;20616;-32
2023/10/24 04:24:07;;;;;;;0.00;0.00;;;14.50;74.00;;;;;;5007049;28;20225;-32
2023/10/24 04:26:39;;;;;;;0.00;0.00;;;14.50;74.00;;;;;;5016230;28;20217;-32
2023/10/24 04:29:07;;;;;;;0.00;0.00;;;14.50;74.10;;;;;;5009840;28;20675;-32
2023/10/24 04:31:39;;;;;;;0.00;0.00;;;14.50;74.00;;;;;;5015117;28;20676;-32
2023/10/24 04:34:07;;;;;;;0.00;0.00;;;14.60;74.10;;;;;;5016205;28;20642;-32
2023/10/24 04:36:41;;;;;;;0.00;0.00;;;14.50;74.00;;;;;;5020346;28;20749;-32
2023/10/24 04:39:13;;;;;;;0.00;0.00;;;14.50;74.10;;;;;;5027093;28;20204;-32
2023/10/24 04:41:40;;;;;;;0.00;0.00;;;14.60;74.10;;;;;;5013305;28;20204;-32
2023/10/24 04:44:14;;;;;;;0.00;0.00;;;14.60;74.20;;;;;;5008639;28;20229;-32
2023/10/24 04:46:41;;;;;;;0.00;0.00;;;14.60;74.10;;;;;;5015722;28;20202;-32
2023/10/24 04:49:11;;;;;;;0.00;0.00;;;14.60;74.10;;;;;;5010350;28;20247;-32
2023/10/24 04:51:40;;;;;;;0.00;0.00;;;14.60;74.20;;;;;;5018603;28;20300;-32
2023/10/24 04:54:10;;;;;;;0.00;0.00;;;14.60;74.20;;;;;;5012140;28;20208;-32
2023/10/24 04:56:40;;;;;;;0.00;0.00;;;14.60;74.10;;;;;;5006070;28;20236;-32
2023/10/24 04:59:07;;;;;;;0.00;0.00;;;14.60;74.10;;;;;;5010556;28;20200;-32
2023/10/24 05:01:43;;;;;;;0.00;0.00;;;14.60;74.10;;;;;;5011980;28;20236;-32
2023/10/24 05:04:10;;;;;;;0.00;0.00;;;14.60;74.10;;;;;;5027527;28;20242;-32
2023/10/24 05:06:40;;;;;;;0.00;0.00;;;14.60;74.00;;;;;;5012348;28;20279;-32
2023/10/24 05:09:07;;;;;;;0.00;0.00;;;14.60;74.00;;;;;;5023936;28;20217;-32
2023/10/24 05:11:39;;;;;;;0.00;0.00;;;14.60;74.00;;;;;;5013239;28;20201;-32
2023/10/24 05:14:06;;;;;;;0.00;0.00;;;14.50;73.90;;;;;;5009128;28;20225;-32
2023/10/24 05:16:35;;;;;;;0.00;0.00;;;14.50;74.00;;;;;;5012732;28;20222;-32
2023/10/24 05:19:05;;;;;;;0.00;0.00;;;14.50;74.00;;;;;;5013564;28;20568;-33
2023/10/24 05:21:33;;;;;;;0.00;0.00;;;14.50;74.00;;;;;;5018642;28;20201;-31
2023/10/24 05:24:02;;;;;;;0.00;0.00;;;14.60;74.10;;;;;;5014886;28;20212;-32
2023/10/24 05:26:32;;;;;;;0.00;0.00;;;14.60;74.20;;;;;;5017322;28;20288;-32
2023/10/24 05:28:59;;;;;;;0.00;0.00;;;14.50;74.10;;;;;;5020368;28;20292;-32
2023/10/24 05:31:28;;;;;;;0.00;0.00;;;14.60;74.10;;;;;;5019704;28;20198;-32
2023/10/24 05:33:55;;;;;;;0.00;0.00;;;14.60;74.10;;;;;;5019550;28;20197;-32
2023/10/24 05:36:25;;;;;;;0.00;0.00;;;14.60;74.10;;;;;;5017899;28;20209;-31
2023/10/24 05:38:55;;;;;;;0.00;0.00;;;14.60;74.10;;;;;;5019961;28;20208;-32
2023/10/24 05:41:25;;;;;;;0.00;0.00;;;14.60;74.10;;;;;;5022464;28;20208;-32
2023/10/24 05:43:56;;;;;;;0.00;0.00;;;14.60;74.10;;;;;;5015379;28;20249;-32
2023/10/24 05:46:24;;;;;;;0.00;0.00;;;14.60;74.10;;;;;;5019071;28;20228;-32
2023/10/24 05:48:53;;;;;;;0.00;0.00;;;14.60;74.10;;;;;;5010885;28;20225;-32
2023/10/24 05:51:24;;;;;;;0.00;0.00;;;14.60;74.10;;;;;;5016209;28;20208;-33
2023/10/24 05:53:51;;;;;;;0.00;0.00;;;14.60;74.10;;;;;;5018841;28;20315;-32
2023/10/24 05:56:21;;;;;;;0.00;0.00;;;14.60;74.10;;;;;;5015174;28;20202;-31
2023/10/24 05:58:54;;;;;;;0.00;0.00;;;14.60;74.10;;;;;;5020034;28;20217;-32
2023/10/24 06:01:22;;;;;;;0.00;0.00;;;14.60;74.10;;;;;;5014041;28;21497;-32
2023/10/24 06:03:52;;;;;;;0.00;0.00;;;14.60;74.00;;;;;;5011565;28;20575;-32
2023/10/24 06:06:20;;;;;;;0.00;0.00;;;14.60;74.10;;;;;;5021360;28;20254;-32
2023/10/24 06:08:49;;;;;;;0.00;0.00;;;14.60;74.00;;;;;;5023281;28;20586;-32
2023/10/24 06:11:21;;;;;;;0.00;0.00;;;14.60;74.10;;;;;;5008266;28;20202;-32
2023/10/24 06:13:48;;;;;;;0.00;0.00;;;14.60;74.00;;;;;;5012572;28;20200;-32
2023/10/24 06:16:19;;;;;;;0.00;0.00;;;14.60;74.00;;;;;;5029381;28;20212;-32
2023/10/24 06:18:46;;;;;;;0.00;0.00;;;14.50;74.00;;;;;;5029041;28;20770;-32
2023/10/24 06:21:13;;;;;;;0.00;0.00;;;14.60;74.00;;;;;;5025456;28;20231;-31
2023/10/24 06:23:45;;;;;;;0.00;0.00;;;14.50;73.90;;;;;;5036469;28;20280;-32
2023/10/24 06:26:17;;;;;;;0.00;0.00;;;14.50;73.90;;;;;;5011807;28;20246;-31
2023/10/24 06:28:47;;;;;;;0.00;0.00;;;14.50;73.90;;;;;;5011994;28;20205;-32
2023/10/24 06:31:19;;;;;;;0.00;0.00;;;14.50;73.90;;;;;;5011356;28;20194;-31
2023/10/24 06:33:47;;;;;;;0.00;0.00;;;14.50;73.90;;;;;;5023598;28;20229;-32
2023/10/24 06:36:14;;;;;;;0.00;0.00;;;14.50;73.90;;;;;;5023405;28;20244;-32
2023/10/24 06:38:43;;;;;;;0.00;0.00;;;14.50;73.80;;;;;;5038770;28;20197;-33
2023/10/24 06:41:16;;;;;;;0.00;0.00;;;14.40;73.80;;;;;;5017772;28;20300;-32
2023/10/24 06:43:43;;;;;;;0.00;0.00;;;14.40;73.80;;;;;;5014694;28;20324;-32
2023/10/24 06:46:15;;;;;;;0.00;0.00;;;14.40;73.80;;;;;;5023506;28;20304;-32
2023/10/24 06:48:49;;;;;;;0.00;0.00;;;14.40;73.80;;;;;;5027318;28;20216;-32
2023/10/24 06:51:18;;;;;;;0.00;0.00;;;14.40;73.80;;;;;;5018945;28;20207;-32
2023/10/24 06:53:48;;;;;;;0.00;0.00;;;14.40;73.90;;;;;;5006941;28;20221;-32
2023/10/24 06:56:15;;;;;;;0.00;0.00;;;14.30;73.80;;;;;;5021074;28;20554;-32
2023/10/24 06:58:44;;;;;;;0.00;0.00;;;14.40;73.90;;;;;;5022029;28;20312;-32
2023/10/24 07:01:11;;;;;;;0.00;0.00;;;14.30;73.80;;;;;;5022667;28;20623;-32
2023/10/24 07:03:39;;;;;;;0.00;0.00;;;14.30;73.90;;;;;;5009931;28;20257;-33
2023/10/24 07:06:06;;;;;;;0.00;0.00;;;14.30;73.90;;;;;;5024961;28;20228;-33
2023/10/24 07:08:33;;;;;;;0.00;0.00;;;14.30;73.90;;;;;;5011540;28;20202;-32
2023/10/24 07:11:01;;;;;;;0.00;0.00;;;14.30;73.90;;;;;;5010933;28;20209;-32
2023/10/24 07:13:30;;;;;;;0.00;0.00;;;14.30;73.90;;;;;;5022684;28;20698;-32
2023/10/24 07:16:09;;;;;;;0.00;0.00;;;14.30;73.90;;;;;;5009963;28;20205;-32
2023/10/24 07:18:38;;;;;;;0.00;0.00;;;14.30;73.90;;;;;;5026079;28;20228;-31
2023/10/24 07:21:06;;;;;;;0.00;0.00;;;14.30;73.90;;;;;;5039927;28;20244;-31
2023/10/24 07:23:33;;;;;;;0.00;0.00;;;14.30;74.00;;;;;;5011239;28;20221;-32
2023/10/24 07:26:03;;;;;;;0.00;0.00;;;14.30;74.00;;;;;;5028183;28;20212;-32
2023/10/24 07:28:33;;;;;;;0.00;0.00;;;14.30;74.00;;;;;;5026087;28;20189;-32
2023/10/24 07:31:03;;;;;;;0.00;0.00;;;14.30;74.00;;;;;;5020320;28;20197;-32
2023/10/24 07:33:37;;;;;;;0.00;0.00;;;14.30;74.00;;;;;;5016782;28;20306;-33
2023/10/24 07:36:05;;;;;;;0.00;0.00;;;14.30;74.10;;;;;;4996637;28;20223;-31
2023/10/24 07:38:33;;;;;;;0.00;0.00;;;14.30;74.10;;;;;;5010108;28;20589;-32
2023/10/24 07:41:05;;;;;;;0.00;0.00;;;14.40;74.20;;;;;;5021052;28;20259;-32
2023/10/24 07:43:32;;;;;;;0.00;0.00;;;14.40;74.30;;;;;;5013365;28;20325;-32
2023/10/24 07:45:59;;;;;;;0.00;0.00;;;14.40;74.20;;;;;;5010290;28;20573;-32
2023/10/24 07:48:29;;;;;;;0.00;0.00;;;14.40;74.30;;;;;;5017390;28;20237;-32
2023/10/24 07:50:58;;;;;;;0.00;0.00;;;14.40;74.30;;;;;;5007010;28;20225;-32
2023/10/24 07:53:28;;;;;;;0.00;0.00;;;14.50;74.40;;;;;;5014260;28;20797;-32
2023/10/24 07:55:58;;;;;;;0.00;0.00;;;14.50;74.40;;;;;;5010382;28;20202;-32
2023/10/24 07:58:25;;;;;;;0.00;0.00;;;14.60;74.40;;;;;;5013950;28;20212;-32
2023/10/24 08:00:52;;;;;;;0.00;0.00;;;14.60;74.50;;;;;;5005562;28;20317;-31
2023/10/24 08:03:20;;;;;;;0.00;0.00;;;14.60;74.40;;;;;;5006871;28;20621;-32
2023/10/24 08:05:51;;;;;;;0.00;0.00;;;14.70;74.50;;;;;;5024086;28;20209;-33
2023/10/24 08:08:18;;;;;;;0.00;0.00;;;14.70;74.50;;;;;;5024583;28;20201;-32
2023/10/24 08:10:45;;;;;;;0.00;0.00;;;14.70;74.40;;;;;;5020136;28;20268;-31
2023/10/24 08:13:12;;;;;;;0.00;0.00;;;14.70;74.50;;;;;;5005857;28;20664;-32
2023/10/24 08:15:42;;;;;;;0.00;0.00;;;14.80;74.50;;;;;;5024783;28;20262;-32
2023/10/24 08:18:11;;;;;;;0.00;0.00;;;14.80;74.50;;;;;;5024710;28;20225;-32
2023/10/24 08:20:41;;;;;;;0.00;0.00;;;14.80;74.50;;;;;;5025796;28;20287;-32
2023/10/24 08:23:08;;;;;;;0.00;0.00;;;14.90;74.60;;;;;;5014772;28;20296;-32
2023/10/24 08:25:38;;;;;;;0.00;0.00;;;14.90;74.60;;;;;;5029129;28;20224;-32
2023/10/24 08:28:06;;;;;;;0.00;0.00;;;14.90;74.60;;;;;;5039294;28;20755;-32
2023/10/24 08:30:36;;;;;;;0.00;0.00;;;15.00;74.70;;;;;;5022256;28;20540;-31
2023/10/24 08:33:06;;;;;;;0.00;0.00;;;15.00;74.60;;;;;;5005597;28;20205;-32
2023/10/24 08:35:35;;;;;;;0.00;0.00;;;15.00;74.50;;;;;;5011672;28;20193;-32
2023/10/24 08:38:05;;;;;;;0.00;0.00;;;15.10;74.60;;;;;;5025897;28;20327;-31
2023/10/24 08:40:37;;;;;;;0.00;0.00;;;15.10;74.70;;;;;;5017207;28;20199;-31
2023/10/24 08:43:05;;;;;;;0.00;0.00;;;15.10;74.60;;;;;;5012111;28;20233;-31
2023/10/24 08:45:35;;;;;;;0.00;0.00;;;15.10;74.50;;;;;;5003865;28;20198;-33
2023/10/24 08:48:05;;;;;;;0.00;0.00;;;15.20;74.60;;;;;;5026397;28;20193;-31
2023/10/24 08:50:38;;;;;;;0.00;0.00;;;15.20;74.60;;;;;;5010159;28;20229;-32
2023/10/24 08:53:06;;;;;;;0.00;0.00;;;15.20;74.60;;;;;;5010744;28;20209;-32
2023/10/24 08:55:37;;;;;;;0.00;0.00;;;15.20;74.60;;;;;;5013699;28;20843;-32
2023/10/24 08:58:08;;;;;;;0.00;0.00;;;15.30;74.50;;;;;;5004890;28;20205;-31
2023/10/24 09:00:37;;;;;;;0.00;0.00;;;15.20;74.50;;;;;;4993091;28;20209;-32
2023/10/24 09:03:04;;;;;;;0.00;0.00;;;15.30;74.50;;;;;;5019078;28;20237;-31
2023/10/24 09:05:38;;;;;;;0.00;0.00;;;15.30;74.50;;;;;;5006637;28;20205;-32
2023/10/24 09:08:05;;;;;;;0.00;0.00;;;15.30;75.30;;;;;;4992943;28;20201;-32
2023/10/24 09:10:33;;;;;;;0.00;0.00;;;15.30;74.60;;;;;;5008920;28;20203;-31
2023/10/24 09:13:04;;;;;;;0.00;0.00;;;15.30;74.60;;;;;;5010919;28;20632;-32
2023/10/24 09:15:34;;;;;;;0.00;0.00;;;15.40;74.70;;;;;;5008409;28;20283;-31
2023/10/24 09:18:04;;;;;;;0.00;0.00;;;15.40;74.70;;;;;;5010832;28;20693;-31
2023/10/24 09:20:37;;;;;;;0.00;0.00;;;15.40;74.60;;;;;;5024551;28;20213;-32
2023/10/24 09:23:09;;;;;;;0.00;0.00;;;15.40;74.60;;;;;;5006192;28;20314;-32
2023/10/24 09:25:39;;;;;;;0.00;0.00;;;15.40;74.60;;;;;;5006258;28;20205;-31
2023/10/24 09:28:15;;;;;;;0.00;0.00;;;15.40;74.60;;;;;;5006046;28;20224;-37
2023/10/24 09:30:45;;;;;;;0.00;0.00;;;15.40;74.60;;;;;;5007536;28;20201;-32
2023/10/24 09:33:15;;;;;;;0.00;0.00;;;15.40;74.60;;;;;;5010346;28;20540;-32
2023/10/24 09:35:42;;;;;;;0.00;0.00;;;15.40;74.60;;;;;;5026787;28;20208;-32
2023/10/24 09:38:21;;;;;;;0.00;0.00;;;15.40;74.70;;;;;;5015435;28;20212;-32
2023/10/24 09:40:52;;;;;;;0.00;0.00;;;15.50;75.50;;;;;;5013974;28;20275;-32
2023/10/24 09:43:21;;;;;;;0.00;0.00;;;15.50;74.70;;;;;;5008465;28;20211;-32
2023/10/24 09:45:52;;;;;;;0.00;0.00;;;15.50;74.70;;;;;;5011883;28;20209;-32
2023/10/24 09:48:22;;;;;;;0.00;0.00;;;15.50;74.60;;;;;;5022213;28;20533;-33
2023/10/24 09:50:51;;;;;;;0.00;0.00;;;15.50;74.60;;;;;;5010843;28;20246;-32
2023/10/24 09:53:19;;;;;;;0.00;0.00;;;15.50;74.70;;;;;;5008732;28;20248;-32
2023/10/24 09:55:49;;;;;;;0.00;0.00;;;15.50;74.70;;;;;;5021450;28;20215;-32
2023/10/24 09:58:18;;;;;;;0.00;0.00;;;15.50;74.80;;;;;;5009045;28;20225;-32
2023/10/24 10:00:50;;;;;;;0.00;0.00;;;15.50;74.80;;;;;;5007869;28;20777;-32
2023/10/24 10:03:22;;;;;;;0.00;0.00;;;15.50;74.80;;;;;;5008948;28;20351;-31
2023/10/24 10:05:54;;;;;;;0.00;0.00;;;15.50;74.80;;;;;;5019249;28;20229;-32
2023/10/24 10:08:30;;;;;;;0.00;0.00;;;15.50;74.80;;;;;;5006240;28;20213;-32
2023/10/24 10:10:59;;;;;;;0.00;0.00;;;15.60;74.90;;;;;;4993736;28;20201;-32
2023/10/24 10:13:30;;;;;;;0.00;0.00;;;15.60;74.90;;;;;;5020280;28;20209;-32
2023/10/24 10:16:23;;;;;;;0.00;0.00;;;15.60;74.80;;;;;;5014702;28;20210;-32
2023/10/24 10:19:08;;;;;;;0.00;0.00;;;15.60;74.80;;;;;;5008931;28;20194;-32
2023/10/24 10:22:22;;;;;;;0.00;0.00;;;15.60;74.80;;;;;;5024572;28;20205;-32
2023/10/24 10:25:08;;;;;;;0.00;0.00;;;15.60;74.80;;;;;;5008568;28;20276;-32
2023/10/24 10:27:37;;;;;;;0.00;0.00;;;15.50;74.70;;;;;;5027025;28;20331;-32
2023/10/24 10:30:20;;;;;;;0.00;0.00;;;15.50;74.50;;;;;;5018172;28;20205;-31
2023/10/24 10:33:17;;;;;;;0.00;0.00;;;15.50;74.40;;;;;;5011823;28;20633;-31
2023/10/24 10:36:01;;;;;;;0.00;0.00;;;15.40;74.30;;;;;;5014973;28;20216;-31
2023/10/24 10:38:46;;;;;;;0.00;0.00;;;15.40;74.30;;;;;;5009579;28;20236;-32
2023/10/24 10:41:21;;;;;;;0.00;0.00;;;15.30;74.30;;;;;;5007962;28;20292;-31
2023/10/24 10:43:50;;;;;;;0.00;0.00;;;15.20;74.30;;;;;;5008927;28;21869;-31
2023/10/24 10:46:23;;;;;;;0.00;0.00;;;15.20;74.30;;;;;;5008703;28;20229;-32
2023/10/24 10:48:56;;;;;;;0.00;0.00;;;15.10;74.30;;;;;;5017455;28;20213;-32
2023/10/24 10:51:28;;;;;;;0.00;0.00;;;15.10;74.40;;;;;;4998447;28;20853;-32
2023/10/24 10:53:58;;;;;;;0.00;0.00;;;15.10;75.20;;;;;;5016036;28;20304;-31
2023/10/24 10:56:31;;;;;;;0.00;0.00;;;15.10;74.50;;;;;;5014725;28;20288;-31
2023/10/24 10:59:06;;;;;;;0.00;0.00;;;15.10;74.60;;;;;;5023163;28;20659;-32
2023/10/24 11:02:05;;;;;;;0.00;0.00;;;15.10;74.60;;;;;;5023074;28;20648;-32
2023/10/24 11:04:35;;;;;;;0.00;0.00;;;15.00;74.60;;;;;;5017056;28;20643;-32
2023/10/24 11:07:08;;;;;;;0.00;0.00;;;15.00;74.60;;;;;;5010393;28;20220;-32
2023/10/24 11:09:36;;;;;;;0.00;0.00;;;15.00;74.60;;;;;;5008914;28;20225;-32
2023/10/24 11:12:21;;;;;;;0.00;0.00;;;15.00;74.60;;;;;;5021722;28;20729;-31
2023/10/24 11:15:06;;;;;;;0.00;0.00;;;15.00;74.70;;;;;;5020117;28;20210;-32
2023/10/24 11:17:34;;;;;;;0.00;0.00;;;15.00;74.80;;;;;;5023149;28;20233;-32
2023/10/24 11:20:06;;;;;;;0.00;0.00;;;15.00;74.80;;;;;;5012108;28;20219;-32
2023/10/24 11:22:47;;;;;;;0.00;0.00;;;15.00;74.90;;;;;;4978879;28;20198;-32
2023/10/24 11:25:17;;;;;;;0.00;0.00;;;15.00;74.90;;;;;;5006240;28;20232;-32
2023/10/24 11:27:45;;;;;;;0.00;0.00;;;15.10;75.00;;;;;;5003663;28;20322;-32
2023/10/24 11:30:15;;;;;;;0.00;0.00;;;15.10;75.10;;;;;;5012958;28;20202;-32
2023/10/24 11:32:42;;;;;;;0.00;0.00;;;15.10;75.10;;;;;;5005978;28;20283;-32
2023/10/24 11:35:17;;;;;;;0.00;0.00;;;15.20;75.20;;;;;;5005267;28;20212;-32
2023/10/24 11:37:44;;;;;;;0.00;0.00;;;15.20;75.30;;;;;;5006830;28;20221;-32
2023/10/24 11:40:14;;;;;;;0.00;0.00;;;15.30;75.30;;;;;;5018142;28;20197;-32
2023/10/24 11:42:41;;;;;;;0.00;0.00;;;15.30;75.20;;;;;;5006692;28;20285;-32
2023/10/24 11:45:11;;;;;;;0.00;0.00;;;15.40;75.30;;;;;;5013064;28;20279;-32
2023/10/24 11:47:40;;;;;;;0.00;0.00;;;15.30;75.20;;;;;;5025294;28;20201;-32
2023/10/24 11:50:08;;;;;;;0.00;0.00;;;15.40;75.30;;;;;;5002565;28;20587;-32
2023/10/24 11:52:37;;;;;;;0.00;0.00;;;15.40;75.30;;;;;;5010561;28;20591;-32
2023/10/24 11:55:06;;;;;;;0.00;0.00;;;15.50;75.30;;;;;;5022115;28;20213;-32
2023/10/24 11:57:38;;;;;;;0.00;0.00;;;15.50;75.40;;;;;;5024288;28;20197;-32
2023/10/24 12:00:15;;;;;;;0.00;0.00;;;15.50;75.30;;;;;;5005401;28;20210;-31
2023/10/24 12:02:45;;;;;;;0.00;0.00;;;15.60;75.40;;;;;;5016781;28;20240;-32
2023/10/24 12:05:15;;;;;;;0.00;0.00;;;15.60;75.30;;;;;;5004608;28;20245;-32
2023/10/24 12:07:52;;;;;;;0.00;0.00;;;15.60;75.30;;;;;;5018105;28;20212;-32
2023/10/24 12:10:22;;;;;;;0.00;0.00;;;15.60;75.30;;;;;;5024722;28;20204;-32
2023/10/24 12:12:51;;;;;;;0.00;0.00;;;15.60;75.20;;;;;;5007941;28;20189;-33
2023/10/24 12:15:23;;;;;;;0.00;0.00;;;15.70;75.20;;;;;;5018589;28;20339;-32
2023/10/24 12:17:51;;;;;;;0.00;0.00;;;15.70;75.10;;;;;;5025060;28;20398;-32
2023/10/24 12:20:20;;;;;;;0.00;0.00;;;15.70;75.20;;;;;;5025270;28;20262;-31
2023/10/24 12:22:57;;;;;;;0.00;0.00;;;15.70;75.20;;;;;;5019305;28;20267;-32
2023/10/24 12:25:25;;;;;;;0.00;0.00;;;15.70;75.20;;;;;;5003189;28;20229;-32
2023/10/24 12:27:54;;;;;;;0.00;0.00;;;15.70;75.10;;;;;;5006586;28;20320;-32
2023/10/24 12:30:23;;;;;;;0.00;0.00;;;15.80;75.30;;;;;;5013359;28;20599;-32
2023/10/24 12:32:53;;;;;;;0.00;0.00;;;15.80;75.20;;;;;;5025561;28;20724;-33
2023/10/24 12:35:22;;;;;;;0.00;0.00;;;15.80;75.10;;;;;;5025237;28;20691;-32
2023/10/24 12:37:49;;;;;;;0.00;0.00;;;15.80;75.10;;;;;;5007834;28;20202;-32
2023/10/24 12:40:18;;;;;;;0.00;0.00;;;15.80;75.10;;;;;;5006280;28;20700;-32
2023/10/24 12:42:47;;;;;;;0.00;0.00;;;15.80;75.10;;;;;;5004493;28;20263;-32
2023/10/24 12:45:16;;;;;;;0.00;0.00;;;15.80;75.10;;;;;;5006869;28;20320;-32
2023/10/24 12:47:46;;;;;;;0.00;0.00;;;15.80;75.30;;;;;;5013676;28;20695;-32
2023/10/24 12:50:13;;;;;;;0.00;0.00;;;15.80;75.20;;;;;;5024158;28;20528;-32
2023/10/24 12:52:42;;;;;;;0.00;0.00;;;15.80;75.20;;;;;;5007716;28;20197;-32
2023/10/24 12:55:10;;;;;;;0.00;0.00;;;15.90;75.20;;;;;;5019700;28;20234;-32
2023/10/24 12:57:40;;;;;;;0.00;0.00;;;15.90;75.30;;;;;;5004460;28;20291;-32
2023/10/24 13:00:08;;;;;;;0.00;0.00;;;15.90;75.40;;;;;;5009150;28;20683;-32
2023/10/24 13:02:35;;;;;;;0.00;0.00;;;15.90;75.40;;;;;;5023404;28;20585;-33